首页
METAR-TAF:

METAR-TAF

机场 :

東密德蘭機場

東米德蘭, 英格兰

纬度: 52-50N, 经度: 001-20W, 海拔: 94米

当前天气观测

该预报发布于29分钟前的15:50 UTC
风速4节,风向,在西北东北之间变化
温度 16°C
湿度 77%
气压 1012 hPa
能见度10公里或以上
多云层高于1700英尺

METAR: EGNX 021550Z 36004KT 310V040 9999 BKN017 16/12 Q1012

时间: 17:19 (16:19 UTC)

预报

该预报发布于5小时和20分钟前的10:59 UTC
预报有效从02日的 12点(UTC)到 03日的 12点(UTC)
风速6节,风向
能见度10公里或以上
散云层高于3500英尺
短暂存在
从 02日的 12点(UTC)到 02日的 16点(UTC)
能見度: 6000
多云层高于500英尺
阵雨
几率 30% :
短暂存在
从 02日的 12点(UTC)到 02日的 16点(UTC)
能見度: 3000
多云层高于400英尺
大阵雨, 雷暴, 雨
几率 30% :
短暂存在
从 02日的 16点(UTC)到 02日的 20点(UTC)
能見度: 6000
阵雨
成为
从 03日的 04点(UTC)到 03日的 07点(UTC)
风速10节,风向西南
几率 40% :
短暂存在
从 03日的 09点(UTC)到 03日的 12点(UTC)
能見度: 6000
阵雨

TAF: EGNX 021059Z 0212/0312 36006KT 9999 SCT035 TEMPO 0212/0216 6000 SHRA BKN005 PROB30 TEMPO 0212/0216 3000 +SHRA TSRA BKN004 PROB30 TEMPO 0216/0220 6000 SHRA BECMG 0304/0307 22010KT PROB40 TEMPO 0309/0312 6000 SHRA

超过4000个机场的气象观测和天气预报(METAR&TAF报告)。

可查询的气象台以黄色和红色小点在地图上表示。

将鼠标移到小点上方,可查看气象台名称。

然后点击查看天气观测和预报。

如需切换地图:点击带黑十字的绿色按钮放大地图;点击带横线的绿色按钮缩小地图;或者点击绿色箭头查看邻近地区的地图。


METAR-TAF: